Time;durP1;ratioP1;P1;durP2;ratioP2;P2;SDS_P1;SDS_P2;PMS_P1;PMS_P2;Temp;Humidity;BMP_temperature;BMP_pressure;BME280_temperature;BME280_humidity;BME280_pressure;Samples;Min_cycle;Max_cycle;Signal;HPM_P1;HPM_P2
2021/08/12 00:01:20;;;;;;;8.57;6.28;;;;;;;;;;4988304;28;20038;-81
2021/08/12 00:03:46;;;;;;;11.43;7.22;;;;;;;;;;4972945;28;20607;-81
2021/08/12 00:06:12;;;;;;;10.63;7.07;;;;;;;;;;4988656;28;20030;-81
2021/08/12 00:08:38;;;;;;;11.30;6.93;;;;;;;;;;4984571;28;20022;-81
2021/08/12 00:11:05;;;;;;;11.68;7.07;;;;;;;;;;4985079;28;20497;-81
2021/08/12 00:13:31;;;;;;;13.63;6.95;;;;;;;;;;4974701;28;20405;-81
2021/08/12 00:15:59;;;;;;;10.35;7.03;;;;;;;;;;4986478;28;20090;-81
2021/08/12 00:18:25;;;;;;;8.63;7.28;;;;;;;;;;4988646;28;20420;-81
2021/08/12 00:20:51;;;;;;;12.52;6.75;;;;;;;;;;4988111;28;20038;-81
2021/08/12 00:23:17;;;;;;;10.98;6.95;;;;;;;;;;4984131;28;20120;-81
2021/08/12 00:25:43;;;;;;;11.20;7.63;;;;;;;;;;4986868;28;20689;-81
2021/08/12 00:28:09;;;;;;;9.90;7.03;;;;;;;;;;4988768;28;20022;-81
2021/08/12 00:30:35;;;;;;;19.08;7.63;;;;;;;;;;4981383;28;20028;-81
2021/08/12 00:33:01;;;;;;;14.32;7.03;;;;;;;;;;4977517;28;20389;-81
2021/08/12 00:35:27;;;;;;;9.80;6.72;;;;;;;;;;4974250;28;20038;-81
2021/08/12 00:37:52;;;;;;;10.90;7.13;;;;;;;;;;4986994;28;20493;-81
2021/08/12 00:40:20;;;;;;;10.68;7.00;;;;;;;;;;4985181;28;20054;-81
2021/08/12 00:42:45;;;;;;;11.40;7.30;;;;;;;;;;4986806;28;20081;-81
2021/08/12 00:45:11;;;;;;;10.57;7.13;;;;;;;;;;4985275;28;20030;-81
2021/08/12 00:47:37;;;;;;;11.02;7.30;;;;;;;;;;4985877;28;20033;-81
2021/08/12 00:50:03;;;;;;;10.57;7.13;;;;;;;;;;4987512;28;20026;-81
2021/08/12 00:52:31;;;;;;;13.25;7.57;;;;;;;;;;4988581;28;20030;-81
2021/08/12 00:54:56;;;;;;;14.02;6.60;;;;;;;;;;4987226;28;20026;-81
2021/08/12 00:57:23;;;;;;;11.98;7.65;;;;;;;;;;4980822;28;20042;-81
2021/08/12 00:59:49;;;;;;;12.35;6.82;;;;;;;;;;4985601;28;20052;-81
2021/08/12 01:02:15;;;;;;;9.27;6.47;;;;;;;;;;4985547;28;20042;-82
2021/08/12 01:04:42;;;;;;;10.98;7.07;;;;;;;;;;4985279;28;20497;-86
2021/08/12 01:07:10;;;;;;;11.00;6.90;;;;;;;;;;4987759;28;20089;-84
2021/08/12 01:09:45;;;;;;;11.68;7.22;;;;;;;;;;4990335;28;20046;-81
2021/08/12 01:12:21;;;;;;;10.30;6.25;;;;;;;;;;4989896;28;20030;-82
2021/08/12 01:14:56;;;;;;;10.68;6.68;;;;;;;;;;4986606;28;20030;-82
2021/08/12 01:17:23;;;;;;;10.00;6.70;;;;;;;;;;4984047;28;20080;-82
2021/08/12 01:20:08;;;;;;;10.70;6.35;;;;;;;;;;4986097;28;20478;-82
2021/08/12 01:22:45;;;;;;;10.48;6.85;;;;;;;;;;4984080;28;20046;-81
2021/08/12 01:25:16;;;;;;;10.15;6.88;;;;;;;;;;4987068;28;20034;-82
2021/08/12 01:27:43;;;;;;;10.80;6.88;;;;;;;;;;4987866;28;20026;-82
2021/08/12 01:30:11;;;;;;;11.95;7.07;;;;;;;;;;4988488;28;20026;-82
2021/08/12 01:32:56;;;;;;;11.90;6.80;;;;;;;;;;4988210;28;20512;-82
2021/08/12 01:35:23;;;;;;;11.02;7.13;;;;;;;;;;4978455;28;20080;-82
2021/08/12 01:37:53;;;;;;;11.32;6.50;;;;;;;;;;4986571;28;20039;-82
2021/08/12 01:40:20;;;;;;;10.63;6.78;;;;;;;;;;4987502;28;20038;-81
2021/08/12 01:42:47;;;;;;;10.80;6.63;;;;;;;;;;4983673;28;20042;-82
2021/08/12 01:45:16;;;;;;;11.65;7.32;;;;;;;;;;4987723;28;20476;-82
2021/08/12 01:47:44;;;;;;;9.15;6.30;;;;;;;;;;4975485;28;20593;-81
2021/08/12 01:50:13;;;;;;;10.25;6.07;;;;;;;;;;4981454;28;20023;-82
2021/08/12 01:52:41;;;;;;;9.60;6.13;;;;;;;;;;4986683;28;20031;-82
2021/08/12 01:55:07;;;;;;;7.78;5.88;;;;;;;;;;4990226;28;20018;-82
2021/08/12 01:57:34;;;;;;;9.23;6.28;;;;;;;;;;4987464;28;20162;-82
2021/08/12 02:00:00;;;;;;;9.18;5.72;;;;;;;;;;4986435;28;20509;-82
2021/08/12 02:02:27;;;;;;;9.45;6.32;;;;;;;;;;4985044;28;20105;-82
2021/08/12 02:04:54;;;;;;;10.18;6.35;;;;;;;;;;4989370;28;20030;-82
2021/08/12 02:07:20;;;;;;;9.50;6.22;;;;;;;;;;4984288;28;20041;-81
2021/08/12 02:09:46;;;;;;;8.45;6.15;;;;;;;;;;4983409;28;20042;-82
2021/08/12 02:12:12;;;;;;;24.50;7.18;;;;;;;;;;4987960;28;20085;-82
2021/08/12 02:14:38;;;;;;;10.25;6.68;;;;;;;;;;4990389;28;20556;-82
2021/08/12 02:17:04;;;;;;;10.82;6.57;;;;;;;;;;4989161;28;20454;-81
2021/08/12 02:19:31;;;;;;;11.10;6.10;;;;;;;;;;4988444;28;20090;-81
2021/08/12 02:21:59;;;;;;;9.73;5.97;;;;;;;;;;4988715;28;20030;-81
2021/08/12 02:24:25;;;;;;;9.15;6.35;;;;;;;;;;4984989;28;20101;-82
2021/08/12 02:27:00;;;;;;;9.88;6.05;;;;;;;;;;4984745;28;20557;-82
2021/08/12 02:29:28;;;;;;;9.40;6.47;;;;;;;;;;4981315;28;20433;-82
2021/08/12 02:31:55;;;;;;;9.82;6.20;;;;;;;;;;4978876;28;20133;-82
2021/08/12 02:34:21;;;;;;;11.60;5.95;;;;;;;;;;4987485;28;20061;-82
2021/08/12 02:36:47;;;;;;;11.43;6.43;;;;;;;;;;4980561;28;20039;-82
2021/08/12 02:39:14;;;;;;;9.65;6.18;;;;;;;;;;4982893;28;20042;-81
2021/08/12 02:41:41;;;;;;;11.45;6.65;;;;;;;;;;4984268;28;20110;-82
2021/08/12 02:44:11;;;;;;;8.25;5.75;;;;;;;;;;4987294;28;20034;-81
2021/08/12 02:46:38;;;;;;;10.63;6.20;;;;;;;;;;4989967;28;20036;-81
2021/08/12 02:49:05;;;;;;;8.05;5.93;;;;;;;;;;4981938;28;20110;-81
2021/08/12 02:51:33;;;;;;;11.13;6.65;;;;;;;;;;4996091;28;20030;-82
2021/08/12 02:54:00;;;;;;;8.35;5.88;;;;;;;;;;4987523;28;20548;-81
2021/08/12 02:56:26;;;;;;;9.00;5.93;;;;;;;;;;4986561;28;20030;-82
2021/08/12 02:58:52;;;;;;;9.55;6.78;;;;;;;;;;4989346;28;20041;-81
2021/08/12 03:01:18;;;;;;;9.48;5.88;;;;;;;;;;4988549;28;20109;-81
2021/08/12 03:03:45;;;;;;;11.90;5.90;;;;;;;;;;4988444;28;20089;-81
2021/08/12 03:06:13;;;;;;;8.70;5.63;;;;;;;;;;4987501;28;20508;-81
2021/08/12 03:08:39;;;;;;;8.90;5.88;;;;;;;;;;4978976;28;20030;-81
2021/08/12 03:11:08;;;;;;;12.07;6.45;;;;;;;;;;4987734;28;20057;-81
2021/08/12 03:13:35;;;;;;;11.05;5.45;;;;;;;;;;4985045;28;20042;-81
2021/08/12 03:16:01;;;;;;;11.00;6.47;;;;;;;;;;4988379;28;20553;-81
2021/08/12 03:18:27;;;;;;;9.63;5.93;;;;;;;;;;4987368;28;20030;-81
2021/08/12 03:20:53;;;;;;;8.35;5.85;;;;;;;;;;4982549;28;20075;-82
2021/08/12 03:23:20;;;;;;;9.68;6.05;;;;;;;;;;4987362;28;20022;-82
2021/08/12 03:25:46;;;;;;;12.10;6.38;;;;;;;;;;4983567;28;20027;-82
2021/08/12 03:28:12;;;;;;;8.68;5.90;;;;;;;;;;4986063;28;20516;-82
2021/08/12 03:30:38;;;;;;;11.00;6.65;;;;;;;;;;4989337;28;20026;-82
2021/08/12 03:33:04;;;;;;;9.07;5.72;;;;;;;;;;4982247;28;20042;-82
2021/08/12 03:35:30;;;;;;;8.35;5.45;;;;;;;;;;4989022;28;20117;-82
2021/08/12 03:37:56;;;;;;;8.35;5.45;;;;;;;;;;4988663;28;20157;-82
2021/08/12 03:40:22;;;;;;;8.95;5.90;;;;;;;;;;4977007;28;20088;-82
2021/08/12 03:42:48;;;;;;;8.80;5.95;;;;;;;;;;4980717;28;20064;-82
2021/08/12 03:45:14;;;;;;;9.50;6.30;;;;;;;;;;4987857;28;20728;-81
2021/08/12 03:47:40;;;;;;;9.93;6.13;;;;;;;;;;4978888;28;20064;-82
2021/08/12 03:50:06;;;;;;;11.40;5.65;;;;;;;;;;4986103;28;20058;-81
2021/08/12 03:52:32;;;;;;;9.10;6.28;;;;;;;;;;4987635;28;20523;-82
2021/08/12 03:54:58;;;;;;;8.40;6.03;;;;;;;;;;4985441;28;20086;-81
2021/08/12 03:57:24;;;;;;;10.73;5.80;;;;;;;;;;4991619;28;20037;-82
2021/08/12 03:59:50;;;;;;;8.82;5.40;;;;;;;;;;4991786;28;21420;-82
2021/08/12 04:02:15;;;;;;;8.65;6.18;;;;;;;;;;4987141;28;20030;-82
2021/08/12 04:04:41;;;;;;;11.80;6.53;;;;;;;;;;4984756;28;20681;-82
2021/08/12 04:07:07;;;;;;;8.75;6.00;;;;;;;;;;4982898;28;20029;-82
2021/08/12 04:09:33;;;;;;;9.90;6.50;;;;;;;;;;4980747;28;20066;-82
2021/08/12 04:11:59;;;;;;;7.95;5.72;;;;;;;;;;4980373;28;20041;-81
2021/08/12 04:14:25;;;;;;;9.02;5.80;;;;;;;;;;4978929;28;20032;-82
2021/08/12 04:16:52;;;;;;;8.82;5.93;;;;;;;;;;4985148;28;20034;-81
2021/08/12 04:19:18;;;;;;;10.85;6.22;;;;;;;;;;4986666;28;20077;-81
2021/08/12 04:21:44;;;;;;;11.35;6.20;;;;;;;;;;4983781;28;20043;-82
2021/08/12 04:24:10;;;;;;;8.77;5.70;;;;;;;;;;4988716;28;20058;-82
2021/08/12 04:26:36;;;;;;;9.32;5.93;;;;;;;;;;4975209;28;20548;-82
2021/08/12 04:29:02;;;;;;;9.13;5.90;;;;;;;;;;4986579;28;20061;-82
2021/08/12 04:31:31;;;;;;;10.50;6.50;;;;;;;;;;4987488;28;20490;-81
2021/08/12 04:33:56;;;;;;;13.85;6.40;;;;;;;;;;4977448;28;20041;-82
2021/08/12 04:36:22;;;;;;;9.18;6.07;;;;;;;;;;4980919;28;20038;-82
2021/08/12 04:38:48;;;;;;;11.52;6.10;;;;;;;;;;4985457;28;20022;-81
2021/08/12 04:41:14;;;;;;;8.48;5.75;;;;;;;;;;4986854;28;20031;-81
2021/08/12 04:43:40;;;;;;;6.95;5.57;;;;;;;;;;4989439;28;20026;-82
2021/08/12 04:46:06;;;;;;;8.93;5.60;;;;;;;;;;4986563;28;20023;-81
2021/08/12 04:48:32;;;;;;;9.52;6.60;;;;;;;;;;4984925;28;20710;-81
2021/08/12 04:50:58;;;;;;;10.27;6.18;;;;;;;;;;4985115;28;20160;-82
2021/08/12 04:53:24;;;;;;;9.73;6.25;;;;;;;;;;4985493;28;20039;-81
2021/08/12 04:55:50;;;;;;;8.43;6.15;;;;;;;;;;4987460;28;20022;-81
2021/08/12 04:58:16;;;;;;;9.95;5.75;;;;;;;;;;4988983;28;20041;-81
2021/08/12 05:00:42;;;;;;;10.63;6.25;;;;;;;;;;4983406;28;20138;-81
2021/08/12 05:03:08;;;;;;;10.43;6.20;;;;;;;;;;4987241;28;20193;-81
2021/08/12 05:05:35;;;;;;;10.55;6.43;;;;;;;;;;4982389;28;20235;-81
2021/08/12 05:08:01;;;;;;;9.90;5.82;;;;;;;;;;4975637;28;20106;-81
2021/08/12 05:10:27;;;;;;;13.15;6.40;;;;;;;;;;4984550;28;20189;-82
2021/08/12 05:12:53;;;;;;;10.13;6.95;;;;;;;;;;4986062;28;20023;-82
2021/08/12 05:15:19;;;;;;;11.63;6.93;;;;;;;;;;4985028;28;20042;-82
2021/08/12 05:17:45;;;;;;;12.48;7.47;;;;;;;;;;4987780;28;20018;-82
2021/08/12 05:20:11;;;;;;;13.93;7.25;;;;;;;;;;4986772;28;20505;-81
2021/08/12 05:22:37;;;;;;;15.88;8.48;;;;;;;;;;4986765;28;20026;-82
2021/08/12 05:25:04;;;;;;;12.82;8.48;;;;;;;;;;4982486;28;20041;-82
2021/08/12 05:27:30;;;;;;;12.38;7.53;;;;;;;;;;4982398;28;20109;-82
2021/08/12 05:29:55;;;;;;;14.48;7.93;;;;;;;;;;4974031;28;20296;-83
2021/08/12 05:32:21;;;;;;;13.77;7.28;;;;;;;;;;4985824;28;20033;-82
2021/08/12 05:34:47;;;;;;;10.95;6.65;;;;;;;;;;4979186;28;20379;-82
2021/08/12 05:37:13;;;;;;;9.73;7.15;;;;;;;;;;4980842;28;20049;-83
2021/08/12 05:39:39;;;;;;;10.68;6.80;;;;;;;;;;4980989;28;20027;-82
2021/08/12 05:42:05;;;;;;;9.70;6.82;;;;;;;;;;4972848;28;20033;-82
2021/08/12 05:44:31;;;;;;;11.75;7.10;;;;;;;;;;4984021;28;20022;-83
2021/08/12 05:46:57;;;;;;;10.23;7.35;;;;;;;;;;4987823;28;20485;-81
2021/08/12 05:49:24;;;;;;;14.20;7.95;;;;;;;;;;4985957;28;20026;-82
2021/08/12 05:51:53;;;;;;;10.75;7.55;;;;;;;;;;4991608;28;20037;-82
2021/08/12 05:54:20;;;;;;;11.10;7.47;;;;;;;;;;4985676;28;20126;-74
2021/08/12 05:56:46;;;;;;;15.40;7.72;;;;;;;;;;4990469;28;20478;-72
2021/08/12 05:59:12;;;;;;;12.88;8.15;;;;;;;;;;4987044;28;20117;-74
2021/08/12 06:01:38;;;;;;;11.93;8.38;;;;;;;;;;4991436;28;20108;-74
2021/08/12 06:04:04;;;;;;;13.77;8.38;;;;;;;;;;4987705;28;20703;-72
2021/08/12 06:06:30;;;;;;;15.00;7.95;;;;;;;;;;4987568;28;20030;-73
2021/08/12 06:08:56;;;;;;;12.75;7.80;;;;;;;;;;4990318;28;20054;-72
2021/08/12 06:11:22;;;;;;;13.30;8.30;;;;;;;;;;4986257;28;20080;-73
2021/08/12 06:13:48;;;;;;;21.40;7.93;;;;;;;;;;4990084;28;20027;-73
2021/08/12 06:16:14;;;;;;;10.13;7.60;;;;;;;;;;4988071;28;20038;-74
2021/08/12 06:18:40;;;;;;;10.98;6.90;;;;;;;;;;4985850;28;20026;-74
2021/08/12 06:21:06;;;;;;;12.63;7.00;;;;;;;;;;4985894;28;22064;-74
2021/08/12 06:23:32;;;;;;;11.68;6.72;;;;;;;;;;4984183;28;20026;-74
2021/08/12 06:25:59;;;;;;;10.15;6.13;;;;;;;;;;4988721;28;20037;-73
2021/08/12 06:28:25;;;;;;;10.15;6.72;;;;;;;;;;4984747;28;20038;-74
2021/08/12 06:30:51;;;;;;;12.57;6.85;;;;;;;;;;4987911;28;20117;-75
2021/08/12 06:33:20;;;;;;;16.10;6.60;;;;;;;;;;4983997;28;20034;-73
2021/08/12 06:35:46;;;;;;;8.95;5.78;;;;;;;;;;4982489;28;20503;-76
2021/08/12 06:38:11;;;;;;;9.18;6.18;;;;;;;;;;4985002;28;20034;-73
2021/08/12 06:40:38;;;;;;;8.80;6.10;;;;;;;;;;4988953;28;20129;-73
2021/08/12 06:43:04;;;;;;;8.07;5.50;;;;;;;;;;4984417;28;20101;-73
2021/08/12 06:45:29;;;;;;;8.27;4.82;;;;;;;;;;4977430;28;20077;-74
2021/08/12 06:47:57;;;;;;;7.55;4.60;;;;;;;;;;4986882;28;20645;-74
2021/08/12 06:50:23;;;;;;;6.03;4.75;;;;;;;;;;4988364;28;20359;-73
2021/08/12 06:52:49;;;;;;;6.32;4.38;;;;;;;;;;5000248;28;20030;-72
2021/08/12 06:55:15;;;;;;;5.75;3.83;;;;;;;;;;4985942;28;20033;-73
2021/08/12 06:57:41;;;;;;;10.35;4.00;;;;;;;;;;4991048;28;20033;-73
2021/08/12 07:00:08;;;;;;;7.88;3.53;;;;;;;;;;4983183;28;20116;-72
2021/08/12 07:02:34;;;;;;;7.55;3.50;;;;;;;;;;4984498;28;20018;-73
2021/08/12 07:05:00;;;;;;;5.15;3.40;;;;;;;;;;4984979;28;20126;-72
2021/08/12 07:07:26;;;;;;;8.15;3.30;;;;;;;;;;4974261;28;20027;-73
2021/08/12 07:09:52;;;;;;;4.53;3.40;;;;;;;;;;4972926;28;20527;-73
2021/08/12 07:12:19;;;;;;;6.05;3.47;;;;;;;;;;4974359;28;20038;-73
2021/08/12 07:14:45;;;;;;;5.25;3.17;;;;;;;;;;4983399;28;20084;-72
2021/08/12 07:17:11;;;;;;;3.90;3.13;;;;;;;;;;4977915;28;20034;-76
2021/08/12 07:19:37;;;;;;;6.43;3.50;;;;;;;;;;4987827;28;20033;-72
2021/08/12 07:22:03;;;;;;;5.75;2.85;;;;;;;;;;4978146;28;20118;-72
2021/08/12 07:24:29;;;;;;;3.20;2.90;;;;;;;;;;4983619;28;20042;-73
2021/08/12 07:26:57;;;;;;;4.47;2.63;;;;;;;;;;4984967;28;20030;-73
2021/08/12 07:29:23;;;;;;;3.83;2.60;;;;;;;;;;4979428;28;20470;-72
2021/08/12 07:31:50;;;;;;;3.15;2.35;;;;;;;;;;4980630;28;20042;-73
2021/08/12 07:34:16;;;;;;;4.20;2.70;;;;;;;;;;4982800;28;20026;-73
2021/08/12 07:36:43;;;;;;;4.05;2.55;;;;;;;;;;4977953;28;20034;-72
2021/08/12 07:39:10;;;;;;;4.85;2.88;;;;;;;;;;4971260;28;20031;-73
2021/08/12 07:41:36;;;;;;;3.85;2.65;;;;;;;;;;4984365;28;20037;-73
2021/08/12 07:44:03;;;;;;;7.05;2.85;;;;;;;;;;4970440;28;20037;-73
2021/08/12 07:46:29;;;;;;;5.80;2.80;;;;;;;;;;4971763;28;20019;-73
2021/08/12 07:48:55;;;;;;;4.65;2.85;;;;;;;;;;4987237;28;20037;-73
2021/08/12 07:51:23;;;;;;;4.45;1.98;;;;;;;;;;4998195;28;20117;-72
2021/08/12 07:53:53;;;;;;;3.90;2.40;;;;;;;;;;4978067;28;20049;-72
2021/08/12 07:56:19;;;;;;;3.85;2.70;;;;;;;;;;4977668;28;20022;-73
2021/08/12 07:58:45;;;;;;;5.47;2.63;;;;;;;;;;4988435;28;20053;-73
2021/08/12 08:01:11;;;;;;;3.75;2.10;;;;;;;;;;4983660;28;20069;-72
2021/08/12 08:03:37;;;;;;;3.60;2.10;;;;;;;;;;4984407;28;20458;-72
2021/08/12 08:06:03;;;;;;;2.33;1.90;;;;;;;;;;4986706;28;20037;-73
2021/08/12 08:08:29;;;;;;;3.42;2.17;;;;;;;;;;4985138;28;20069;-72
2021/08/12 08:10:55;;;;;;;5.18;2.22;;;;;;;;;;4982581;28;20433;-72
2021/08/12 08:13:21;;;;;;;3.60;2.10;;;;;;;;;;4979870;28;20150;-72
2021/08/12 08:15:47;;;;;;;3.17;2.20;;;;;;;;;;4983611;28;20090;-73
2021/08/12 08:18:13;;;;;;;3.85;2.40;;;;;;;;;;4986246;28;20077;-74
2021/08/12 08:20:39;;;;;;;3.72;2.25;;;;;;;;;;4979615;28;20257;-71
2021/08/12 08:23:06;;;;;;;3.38;2.30;;;;;;;;;;4981772;28;20186;-74
2021/08/12 08:25:32;;;;;;;8.07;2.63;;;;;;;;;;4982608;28;20032;-73
2021/08/12 08:27:58;;;;;;;3.58;2.40;;;;;;;;;;4983068;28;20026;-72
2021/08/12 08:30:24;;;;;;;3.75;2.30;;;;;;;;;;4984735;28;20041;-72
2021/08/12 08:32:50;;;;;;;4.10;2.67;;;;;;;;;;4983309;28;20669;-73
2021/08/12 08:35:16;;;;;;;2.67;2.03;;;;;;;;;;4977894;28;20117;-71
2021/08/12 08:37:42;;;;;;;4.07;2.40;;;;;;;;;;4972669;28;20462;-74
2021/08/12 08:40:08;;;;;;;3.13;2.67;;;;;;;;;;4979332;28;20030;-74
2021/08/12 08:42:35;;;;;;;3.78;2.40;;;;;;;;;;4985095;28;20034;-73
2021/08/12 08:45:01;;;;;;;3.70;2.70;;;;;;;;;;4985915;28;20031;-73
2021/08/12 08:47:27;;;;;;;3.55;2.17;;;;;;;;;;4981799;28;20033;-73
2021/08/12 08:49:54;;;;;;;4.22;2.97;;;;;;;;;;4985756;28;20145;-73
2021/08/12 08:52:21;;;;;;;5.05;2.65;;;;;;;;;;4988769;28;20030;-73
2021/08/12 08:54:47;;;;;;;4.00;2.70;;;;;;;;;;4986685;28;20034;-74
2021/08/12 08:57:13;;;;;;;5.28;2.90;;;;;;;;;;4979504;28;20177;-74
2021/08/12 08:59:39;;;;;;;4.15;2.53;;;;;;;;;;4975842;28;20512;-73
2021/08/12 09:02:06;;;;;;;3.10;2.08;;;;;;;;;;4978051;28;20035;-73
2021/08/12 09:04:33;;;;;;;3.80;2.38;;;;;;;;;;4985416;28;20159;-73
2021/08/12 09:06:59;;;;;;;5.32;2.50;;;;;;;;;;4980030;28;20151;-73
2021/08/12 09:09:25;;;;;;;3.33;2.67;;;;;;;;;;4976976;28;20042;-73
2021/08/12 09:11:51;;;;;;;5.32;2.60;;;;;;;;;;4970859;28;20038;-73
2021/08/12 09:14:31;;;;;;;2.45;1.95;;;;;;;;;;4985737;28;20456;-73
2021/08/12 09:16:57;;;;;;;6.25;2.45;;;;;;;;;;4980184;28;20545;-73
2021/08/12 09:19:24;;;;;;;3.42;2.08;;;;;;;;;;4979256;28;20058;-73
2021/08/12 09:21:54;;;;;;;2.60;2.03;;;;;;;;;;4974509;28;20043;-72
2021/08/12 09:24:43;;;;;;;5.18;2.50;;;;;;;;;;4977469;28;20061;-72
2021/08/12 09:27:19;;;;;;;2.92;2.30;;;;;;;;;;4979320;28;20048;-72
2021/08/12 09:29:45;;;;;;;4.72;2.25;;;;;;;;;;4978082;28;20027;-72
2021/08/12 09:32:11;;;;;;;6.13;2.58;;;;;;;;;;4972630;28;20493;-72
2021/08/12 09:34:44;;;;;;;2.40;2.20;;;;;;;;;;4976883;28;20034;-72
2021/08/12 09:37:10;;;;;;;4.45;2.25;;;;;;;;;;4980178;28;20030;-73
2021/08/12 09:39:36;;;;;;;2.60;2.10;;;;;;;;;;4981945;28;20046;-72
2021/08/12 09:42:05;;;;;;;4.63;2.10;;;;;;;;;;4973298;28;20548;-73
2021/08/12 09:44:53;;;;;;;4.25;2.20;;;;;;;;;;4987127;28;20490;-72
2021/08/12 09:47:19;;;;;;;3.03;2.03;;;;;;;;;;4982093;28;20035;-73
2021/08/12 09:49:51;;;;;;;7.20;2.63;;;;;;;;;;4974354;28;20109;-73
2021/08/12 09:52:33;;;;;;;6.28;2.53;;;;;;;;;;4998333;28;20398;-72
2021/08/12 09:54:59;;;;;;;3.67;2.38;;;;;;;;;;4986581;28;20033;-72
2021/08/12 09:57:25;;;;;;;2.65;1.80;;;;;;;;;;4976202;28;20034;-72
2021/08/12 09:59:52;;;;;;;1.70;1.60;;;;;;;;;;4994397;28;20565;-72
2021/08/12 10:02:19;;;;;;;2.95;2.13;;;;;;;;;;4981974;28;20481;-72
2021/08/12 10:04:45;;;;;;;2.65;2.05;;;;;;;;;;4988059;28;20030;-72
2021/08/12 10:07:31;;;;;;;5.47;1.95;;;;;;;;;;4971881;28;20037;-73
2021/08/12 10:09:57;;;;;;;3.35;2.10;;;;;;;;;;4974405;28;20425;-73
2021/08/12 10:12:35;;;;;;;4.10;2.08;;;;;;;;;;4974377;28;20035;-73
2021/08/12 10:15:01;;;;;;;2.60;2.20;;;;;;;;;;4974409;28;20108;-73
2021/08/12 10:17:27;;;;;;;3.15;2.10;;;;;;;;;;4972516;28;20492;-73
2021/08/12 10:19:53;;;;;;;2.33;1.95;;;;;;;;;;4983836;28;20105;-72
2021/08/12 10:22:20;;;;;;;1.88;1.60;;;;;;;;;;4980177;28;20075;-72
2021/08/12 10:24:46;;;;;;;2.63;1.73;;;;;;;;;;4971783;28;20050;-72
2021/08/12 10:27:13;;;;;;;5.25;1.80;;;;;;;;;;4983183;28;20523;-72
2021/08/12 10:29:40;;;;;;;2.53;1.83;;;;;;;;;;4973806;28;20126;-73
2021/08/12 10:32:06;;;;;;;2.03;1.75;;;;;;;;;;4973304;28;20485;-73
2021/08/12 10:34:32;;;;;;;3.38;1.90;;;;;;;;;;4970941;28;20486;-72
2021/08/12 10:36:58;;;;;;;5.13;1.98;;;;;;;;;;4984217;28;20094;-73
2021/08/12 10:39:24;;;;;;;2.63;2.30;;;;;;;;;;4973195;28;20083;-73
2021/08/12 10:41:50;;;;;;;2.58;1.92;;;;;;;;;;4978900;28;20041;-72
2021/08/12 10:44:20;;;;;;;2.60;2.30;;;;;;;;;;4983518;28;20038;-73
2021/08/12 10:46:46;;;;;;;4.00;2.08;;;;;;;;;;4977335;28;20022;-72
2021/08/12 10:49:31;;;;;;;1.92;1.73;;;;;;;;;;4972374;28;20470;-73
2021/08/12 10:52:05;;;;;;;3.40;2.10;;;;;;;;;;4990016;28;20129;-73
2021/08/12 10:54:32;;;;;;;2.50;1.95;;;;;;;;;;4977796;28;20033;-72
2021/08/12 10:57:13;;;;;;;2.60;2.25;;;;;;;;;;4975594;28;20049;-73
2021/08/12 10:59:39;;;;;;;2.30;2.10;;;;;;;;;;4990714;28;20023;-72
2021/08/12 11:02:23;;;;;;;3.47;1.92;;;;;;;;;;4984833;28;20047;-73
2021/08/12 11:04:53;;;;;;;2.40;1.90;;;;;;;;;;4971671;28;20022;-73
2021/08/12 11:07:37;;;;;;;2.08;1.75;;;;;;;;;;4970902;28;20101;-73
2021/08/12 11:10:04;;;;;;;4.28;2.42;;;;;;;;;;4972894;28;20090;-72
2021/08/12 11:12:57;;;;;;;4.63;2.50;;;;;;;;;;4975644;28;20035;-72
2021/08/12 11:15:38;;;;;;;4.28;2.55;;;;;;;;;;4981463;28;20121;-72
2021/08/12 11:18:06;;;;;;;1.98;1.67;;;;;;;;;;4970665;28;20311;-72
2021/08/12 11:20:37;;;;;;;4.00;2.17;;;;;;;;;;4979013;28;20042;-72
2021/08/12 11:23:18;;;;;;;4.85;2.10;;;;;;;;;;4970602;28;20030;-73
2021/08/12 11:25:44;;;;;;;;;;;;;;;;;;4979019;28;20118;-73
2021/08/12 11:28:35;;;;;;;1.55;1.45;;;;;;;;;;4981751;28;19997;-73
2021/08/12 11:31:01;;;;;;;3.45;2.20;;;;;;;;;;4986237;28;20045;-73
2021/08/12 11:33:28;;;;;;;1.65;1.55;;;;;;;;;;4970552;28;20666;-73
2021/08/12 11:36:13;;;;;;;2.63;1.98;;;;;;;;;;4973594;28;20054;-73
2021/08/12 11:38:42;;;;;;;2.35;1.77;;;;;;;;;;4970646;28;20023;-73
2021/08/12 11:41:09;;;;;;;2.13;1.92;;;;;;;;;;4978151;28;20035;-73
2021/08/12 11:43:37;;;;;;;2.42;1.90;;;;;;;;;;4979971;28;20034;-72
2021/08/12 11:46:03;;;;;;;1.95;1.45;;;;;;;;;;4981356;28;20031;-72
2021/08/12 11:48:31;;;;;;;2.90;1.90;;;;;;;;;;4976988;28;20077;-73
2021/08/12 11:51:01;;;;;;;4.57;2.25;;;;;;;;;;4991347;28;20029;-73
2021/08/12 11:53:43;;;;;;;2.45;2.00;;;;;;;;;;4983792;28;20073;-70
2021/08/12 11:56:12;;;;;;;2.25;1.73;;;;;;;;;;4973100;28;20408;-71
2021/08/12 11:58:38;;;;;;;2.10;1.90;;;;;;;;;;4982257;28;20089;-73
2021/08/12 12:01:14;;;;;;;3.05;1.92;;;;;;;;;;4978525;28;20030;-72
2021/08/12 12:03:40;;;;;;;4.25;2.65;;;;;;;;;;4988908;28;20022;-73
2021/08/12 12:06:06;;;;;;;5.38;1.98;;;;;;;;;;4976575;28;20516;-73
2021/08/12 12:08:32;;;;;;;1.95;1.75;;;;;;;;;;4981982;28;20027;-74
2021/08/12 12:11:08;;;;;;;1.75;1.65;;;;;;;;;;4987913;28;20100;-73
2021/08/12 12:13:33;;;;;;;2.35;1.88;;;;;;;;;;4984017;28;20041;-73
2021/08/12 12:15:59;;;;;;;2.22;2.00;;;;;;;;;;4971791;28;20027;-73
2021/08/12 12:18:35;;;;;;;3.80;1.83;;;;;;;;;;4987506;28;20358;-73
2021/08/12 12:21:11;;;;;;;3.17;1.95;;;;;;;;;;4988116;28;20616;-72
2021/08/12 12:23:42;;;;;;;4.22;1.98;;;;;;;;;;4981022;28;20050;-79
2021/08/12 12:26:17;;;;;;;2.28;1.88;;;;;;;;;;4979184;28;20032;-77
2021/08/12 12:28:43;;;;;;;2.78;1.83;;;;;;;;;;4980776;28;20084;-77
2021/08/12 12:31:16;;;;;;;3.15;2.05;;;;;;;;;;4986329;28;20038;-73
2021/08/12 12:33:42;;;;;;;3.00;1.92;;;;;;;;;;4983743;28;20034;-74
2021/08/12 12:36:08;;;;;;;1.67;1.58;;;;;;;;;;4983184;28;20088;-73
2021/08/12 12:38:35;;;;;;;1.90;1.50;;;;;;;;;;4983189;28;20037;-73
2021/08/12 12:41:05;;;;;;;3.50;1.77;;;;;;;;;;4979040;28;20121;-75
2021/08/12 12:43:31;;;;;;;1.88;1.50;;;;;;;;;;4984234;28;20077;-76
2021/08/12 12:45:57;;;;;;;3.03;1.70;;;;;;;;;;4981978;28;20042;-76
2021/08/12 12:48:30;;;;;;;1.80;1.70;;;;;;;;;;4976798;28;20097;-75
2021/08/12 12:50:57;;;;;;;2.03;1.92;;;;;;;;;;4987431;28;20054;-76
2021/08/12 12:53:27;;;;;;;6.97;2.70;;;;;;;;;;4988564;28;20110;-76
2021/08/12 12:55:53;;;;;;;2.63;2.30;;;;;;;;;;4974318;28;20114;-77
2021/08/12 12:58:37;;;;;;;3.00;2.03;;;;;;;;;;4993328;28;20460;-77
2021/08/12 13:01:07;;;;;;;2.50;1.90;;;;;;;;;;4981067;28;20042;-77
2021/08/12 13:03:33;;;;;;;;;;;;;;;;;;4985134;28;20059;-76
2021/08/12 13:06:03;;;;;;;8.60;3.55;;;;;;;;;;4973765;28;19937;-77
2021/08/12 13:08:39;;;;;;;3.78;2.10;;;;;;;;;;4974848;28;20094;-77
2021/08/12 13:11:06;;;;;;;4.25;2.47;;;;;;;;;;4987174;28;20058;-78
2021/08/12 13:13:33;;;;;;;2.65;1.92;;;;;;;;;;4981695;28;20497;-74
2021/08/12 13:15:59;;;;;;;2.80;1.90;;;;;;;;;;4984538;28;20041;-75
2021/08/12 13:18:44;;;;;;;6.78;2.40;;;;;;;;;;4974045;28;20030;-75
2021/08/12 13:21:23;;;;;;;3.20;2.08;;;;;;;;;;4981279;28;20473;-77
2021/08/12 13:23:52;;;;;;;2.60;2.20;;;;;;;;;;4983179;28;20046;-74
2021/08/12 13:26:26;;;;;;;6.50;2.27;;;;;;;;;;4982973;28;20054;-75
2021/08/12 13:29:01;;;;;;;2.40;2.20;;;;;;;;;;4976045;28;20035;-74
2021/08/12 13:31:34;;;;;;;2.60;2.30;;;;;;;;;;4978371;28;20041;-74
2021/08/12 13:34:00;;;;;;;4.55;2.22;;;;;;;;;;4974227;28;20353;-74
2021/08/12 13:36:26;;;;;;;3.05;2.50;;;;;;;;;;4968764;28;20490;-74
2021/08/12 13:38:52;;;;;;;2.70;2.30;;;;;;;;;;4972613;28;20041;-74
2021/08/12 13:41:18;;;;;;;2.40;2.20;;;;;;;;;;4978285;28;20035;-75
2021/08/12 13:43:44;;;;;;;3.22;2.20;;;;;;;;;;4969175;28;20023;-75
2021/08/12 13:46:09;;;;;;;3.08;2.30;;;;;;;;;;4981120;28;20031;-75
2021/08/12 13:48:35;;;;;;;2.33;2.00;;;;;;;;;;4979641;28;20022;-75
2021/08/12 13:51:01;;;;;;;2.50;2.30;;;;;;;;;;4976244;28;20066;-75
2021/08/12 13:53:27;;;;;;;3.83;2.50;;;;;;;;;;4975391;28;20101;-74
2021/08/12 13:55:53;;;;;;;2.40;2.20;;;;;;;;;;4970638;28;20549;-74
2021/08/12 13:58:19;;;;;;;3.03;2.20;;;;;;;;;;4980679;28;20027;-74
2021/08/12 14:00:45;;;;;;;6.75;2.58;;;;;;;;;;4981583;28;20142;-75
2021/08/12 14:03:11;;;;;;;36.92;2.92;;;;;;;;;;4975305;28;20050;-74
2021/08/12 14:05:37;;;;;;;2.40;2.17;;;;;;;;;;4968775;28;20027;-74
2021/08/12 14:08:03;;;;;;;3.50;2.33;;;;;;;;;;4980980;28;20027;-74
2021/08/12 14:10:29;;;;;;;3.25;2.50;;;;;;;;;;4975666;28;20501;-75
2021/08/12 14:12:54;;;;;;;2.72;2.35;;;;;;;;;;4976762;28;20035;-74
2021/08/12 14:15:20;;;;;;;3.03;2.42;;;;;;;;;;4972432;28;20109;-74
2021/08/12 14:17:46;;;;;;;2.58;2.28;;;;;;;;;;4977125;28;20018;-75
2021/08/12 14:20:15;;;;;;;3.08;2.10;;;;;;;;;;4972691;28;20581;-74
2021/08/12 14:22:41;;;;;;;2.67;2.40;;;;;;;;;;4982488;28;20026;-75
2021/08/12 14:25:07;;;;;;;5.38;2.67;;;;;;;;;;4988318;28;20284;-72
2021/08/12 14:27:33;;;;;;;3.58;2.42;;;;;;;;;;4988749;28;20038;-73
2021/08/12 14:29:59;;;;;;;5.15;2.33;;;;;;;;;;4988647;28;20022;-73
2021/08/12 14:32:25;;;;;;;3.88;2.08;;;;;;;;;;4979418;28;20045;-73
2021/08/12 14:34:51;;;;;;;2.90;2.55;;;;;;;;;;4983787;28;20402;-73
2021/08/12 14:37:17;;;;;;;2.83;2.30;;;;;;;;;;4988968;28;20046;-73
2021/08/12 14:39:43;;;;;;;2.63;2.42;;;;;;;;;;4975636;28;20083;-72
2021/08/12 14:42:09;;;;;;;2.63;2.42;;;;;;;;;;4986624;28;20028;-73
2021/08/12 14:44:35;;;;;;;2.42;2.22;;;;;;;;;;4982804;28;20031;-72